sensor_id;sensor_type;location;lat;lon;timestamp;P1;durP1;ratioP1;P2;durP2;ratioP2
5418;SDS011;2732;52.092;11.556;2023-02-28T00:04:27;10.77;;;3.83;;
5418;SDS011;2732;52.092;11.556;2023-02-28T00:09:27;7.60;;;5.07;;
5418;SDS011;2732;52.092;11.556;2023-02-28T00:14:29;6.53;;;3.80;;
5418;SDS011;2732;52.092;11.556;2023-02-28T00:19:30;5.97;;;4.13;;
5418;SDS011;2732;52.092;11.556;2023-02-28T00:24:30;3.43;;;2.87;;
5418;SDS011;2732;52.092;11.556;2023-02-28T00:29:31;11.00;;;3.87;;
5418;SDS011;2732;52.092;11.556;2023-02-28T00:34:32;6.70;;;3.57;;
5418;SDS011;2732;52.092;11.556;2023-02-28T00:39:37;4.80;;;3.47;;
5418;SDS011;2732;52.092;11.556;2023-02-28T00:44:39;5.30;;;3.70;;
5418;SDS011;2732;52.092;11.556;2023-02-28T00:49:40;4.20;;;3.67;;
5418;SDS011;2732;52.092;11.556;2023-02-28T00:54:40;9.00;;;4.63;;
5418;SDS011;2732;52.092;11.556;2023-02-28T00:59:41;4.43;;;3.53;;
5418;SDS011;2732;52.092;11.556;2023-02-28T01:04:41;5.30;;;3.73;;
5418;SDS011;2732;52.092;11.556;2023-02-28T01:09:42;6.10;;;3.80;;
5418;SDS011;2732;52.092;11.556;2023-02-28T01:14:43;6.20;;;3.97;;
5418;SDS011;2732;52.092;11.556;2023-02-28T01:19:43;4.50;;;3.40;;
5418;SDS011;2732;52.092;11.556;2023-02-28T01:24:44;5.83;;;2.77;;
5418;SDS011;2732;52.092;11.556;2023-02-28T01:29:44;7.27;;;3.40;;
5418;SDS011;2732;52.092;11.556;2023-02-28T01:34:45;5.70;;;3.60;;
5418;SDS011;2732;52.092;11.556;2023-02-28T01:39:46;7.23;;;4.40;;
5418;SDS011;2732;52.092;11.556;2023-02-28T01:45:00;10.40;;;3.63;;
5418;SDS011;2732;52.092;11.556;2023-02-28T01:50:20;5.87;;;4.30;;
5418;SDS011;2732;52.092;11.556;2023-02-28T01:55:25;6.00;;;3.70;;
5418;SDS011;2732;52.092;11.556;2023-02-28T02:00:28;4.63;;;3.30;;
5418;SDS011;2732;52.092;11.556;2023-02-28T02:05:30;3.67;;;3.37;;
5418;SDS011;2732;52.092;11.556;2023-02-28T02:10:41;5.80;;;3.53;;
5418;SDS011;2732;52.092;11.556;2023-02-28T02:16:02;3.50;;;3.20;;
5418;SDS011;2732;52.092;11.556;2023-02-28T02:21:28;5.07;;;3.77;;
5418;SDS011;2732;52.092;11.556;2023-02-28T02:38:11;4.13;;;3.30;;
5418;SDS011;2732;52.092;11.556;2023-02-28T02:43:34;7.17;;;3.47;;
5418;SDS011;2732;52.092;11.556;2023-02-28T02:48:48;7.70;;;3.90;;
5418;SDS011;2732;52.092;11.556;2023-02-28T02:53:53;6.70;;;4.40;;
5418;SDS011;2732;52.092;11.556;2023-02-28T02:59:06;3.80;;;2.80;;
5418;SDS011;2732;52.092;11.556;2023-02-28T03:04:12;3.77;;;3.40;;
5418;SDS011;2732;52.092;11.556;2023-02-28T03:09:17;3.27;;;3.00;;
5418;SDS011;2732;52.092;11.556;2023-02-28T03:19:45;2.87;;;2.57;;
5418;SDS011;2732;52.092;11.556;2023-02-28T03:25:07;2.23;;;2.00;;
5418;SDS011;2732;52.092;11.556;2023-02-28T03:36:04;5.07;;;2.37;;
5418;SDS011;2732;52.092;11.556;2023-02-28T03:41:14;3.53;;;2.60;;
5418;SDS011;2732;52.092;11.556;2023-02-28T03:46:21;3.20;;;2.47;;
5418;SDS011;2732;52.092;11.556;2023-02-28T03:51:25;3.73;;;2.50;;
5418;SDS011;2732;52.092;11.556;2023-02-28T04:02:12;2.80;;;2.60;;
5418;SDS011;2732;52.092;11.556;2023-02-28T04:07:12;3.00;;;2.30;;
5418;SDS011;2732;52.092;11.556;2023-02-28T04:12:13;4.63;;;2.77;;
5418;SDS011;2732;52.092;11.556;2023-02-28T04:17:14;3.77;;;2.67;;
5418;SDS011;2732;52.092;11.556;2023-02-28T04:22:16;7.47;;;2.93;;
5418;SDS011;2732;52.092;11.556;2023-02-28T04:27:17;3.47;;;2.27;;
5418;SDS011;2732;52.092;11.556;2023-02-28T04:32:18;3.13;;;2.60;;
5418;SDS011;2732;52.092;11.556;2023-02-28T04:37:19;3.00;;;2.40;;
5418;SDS011;2732;52.092;11.556;2023-02-28T04:42:20;5.17;;;3.17;;
5418;SDS011;2732;52.092;11.556;2023-02-28T04:47:20;3.20;;;2.60;;
5418;SDS011;2732;52.092;11.556;2023-02-28T04:52:21;3.83;;;2.33;;
5418;SDS011;2732;52.092;11.556;2023-02-28T04:57:21;4.03;;;2.77;;
5418;SDS011;2732;52.092;11.556;2023-02-28T05:02:22;3.63;;;2.60;;
5418;SDS011;2732;52.092;11.556;2023-02-28T05:07:23;5.47;;;2.90;;
5418;SDS011;2732;52.092;11.556;2023-02-28T05:12:24;3.90;;;2.43;;
5418;SDS011;2732;52.092;11.556;2023-02-28T05:17:24;2.90;;;2.50;;
5418;SDS011;2732;52.092;11.556;2023-02-28T05:22:25;2.77;;;2.40;;
5418;SDS011;2732;52.092;11.556;2023-02-28T05:27:26;2.33;;;2.00;;
5418;SDS011;2732;52.092;11.556;2023-02-28T05:32:28;3.00;;;2.77;;
5418;SDS011;2732;52.092;11.556;2023-02-28T05:37:28;3.70;;;2.53;;
5418;SDS011;2732;52.092;11.556;2023-02-28T05:42:29;2.67;;;2.43;;
5418;SDS011;2732;52.092;11.556;2023-02-28T05:47:30;3.83;;;3.50;;
5418;SDS011;2732;52.092;11.556;2023-02-28T05:52:31;3.70;;;2.63;;
5418;SDS011;2732;52.092;11.556;2023-02-28T05:57:32;4.23;;;1.93;;
5418;SDS011;2732;52.092;11.556;2023-02-28T06:02:32;3.23;;;2.90;;
5418;SDS011;2732;52.092;11.556;2023-02-28T06:07:33;2.83;;;2.43;;
5418;SDS011;2732;52.092;11.556;2023-02-28T06:12:33;7.13;;;3.10;;
5418;SDS011;2732;52.092;11.556;2023-02-28T06:17:34;5.87;;;3.03;;
5418;SDS011;2732;52.092;11.556;2023-02-28T06:22:35;2.77;;;2.60;;
5418;SDS011;2732;52.092;11.556;2023-02-28T06:27:39;4.73;;;3.80;;
5418;SDS011;2732;52.092;11.556;2023-02-28T06:32:39;4.07;;;3.63;;
5418;SDS011;2732;52.092;11.556;2023-02-28T06:37:40;3.90;;;3.60;;
5418;SDS011;2732;52.092;11.556;2023-02-28T06:42:40;4.03;;;3.20;;
5418;SDS011;2732;52.092;11.556;2023-02-28T06:47:42;3.50;;;3.20;;
5418;SDS011;2732;52.092;11.556;2023-02-28T06:52:43;4.43;;;2.97;;
5418;SDS011;2732;52.092;11.556;2023-02-28T06:57:43;4.87;;;4.30;;
5418;SDS011;2732;52.092;11.556;2023-02-28T07:02:44;8.87;;;3.70;;
5418;SDS011;2732;52.092;11.556;2023-02-28T07:07:44;4.77;;;3.67;;
5418;SDS011;2732;52.092;11.556;2023-02-28T07:12:46;4.90;;;3.70;;
5418;SDS011;2732;52.092;11.556;2023-02-28T07:17:47;4.43;;;3.40;;
5418;SDS011;2732;52.092;11.556;2023-02-28T07:22:48;4.40;;;3.17;;
5418;SDS011;2732;52.092;11.556;2023-02-28T07:27:55;10.00;;;4.60;;
5418;SDS011;2732;52.092;11.556;2023-02-28T07:32:59;5.77;;;3.97;;
5418;SDS011;2732;52.092;11.556;2023-02-28T07:38:00;5.90;;;4.03;;
5418;SDS011;2732;52.092;11.556;2023-02-28T07:43:01;4.40;;;4.00;;
5418;SDS011;2732;52.092;11.556;2023-02-28T07:48:03;7.33;;;4.17;;
5418;SDS011;2732;52.092;11.556;2023-02-28T07:53:04;12.50;;;5.60;;
5418;SDS011;2732;52.092;11.556;2023-02-28T07:58:04;4.60;;;3.67;;
5418;SDS011;2732;52.092;11.556;2023-02-28T08:03:05;9.13;;;5.00;;
5418;SDS011;2732;52.092;11.556;2023-02-28T08:08:06;7.60;;;4.50;;
5418;SDS011;2732;52.092;11.556;2023-02-28T08:13:07;11.53;;;4.50;;
5418;SDS011;2732;52.092;11.556;2023-02-28T08:18:08;5.17;;;4.20;;
5418;SDS011;2732;52.092;11.556;2023-02-28T08:23:09;8.23;;;4.20;;
5418;SDS011;2732;52.092;11.556;2023-02-28T08:28:10;5.83;;;4.00;;
5418;SDS011;2732;52.092;11.556;2023-02-28T08:33:10;3.40;;;2.83;;
5418;SDS011;2732;52.092;11.556;2023-02-28T08:38:11;3.30;;;2.27;;
5418;SDS011;2732;52.092;11.556;2023-02-28T08:43:12;5.40;;;2.43;;
5418;SDS011;2732;52.092;11.556;2023-02-28T08:48:12;3.23;;;2.93;;
5418;SDS011;2732;52.092;11.556;2023-02-28T08:53:13;5.53;;;2.00;;
5418;SDS011;2732;52.092;11.556;2023-02-28T08:58:14;3.63;;;2.37;;
5418;SDS011;2732;52.092;11.556;2023-02-28T09:03:14;3.37;;;2.37;;
5418;SDS011;2732;52.092;11.556;2023-02-28T09:08:15;3.30;;;2.50;;
5418;SDS011;2732;52.092;11.556;2023-02-28T09:13:17;3.73;;;2.23;;
5418;SDS011;2732;52.092;11.556;2023-02-28T09:18:18;2.20;;;1.40;;
5418;SDS011;2732;52.092;11.556;2023-02-28T09:23:20;1.63;;;1.33;;
5418;SDS011;2732;52.092;11.556;2023-02-28T09:28:21;3.70;;;2.00;;
5418;SDS011;2732;52.092;11.556;2023-02-28T09:33:22;2.87;;;1.67;;
5418;SDS011;2732;52.092;11.556;2023-02-28T09:38:23;6.17;;;3.17;;
5418;SDS011;2732;52.092;11.556;2023-02-28T09:43:25;1.30;;;1.20;;
5418;SDS011;2732;52.092;11.556;2023-02-28T09:48:39;1.67;;;1.43;;
5418;SDS011;2732;52.092;11.556;2023-02-28T09:53:45;2.53;;;1.73;;
5418;SDS011;2732;52.092;11.556;2023-02-28T09:58:49;1.80;;;1.70;;
5418;SDS011;2732;52.092;11.556;2023-02-28T10:04:09;1.50;;;1.40;;
5418;SDS011;2732;52.092;11.556;2023-02-28T10:09:40;1.77;;;1.43;;
5418;SDS011;2732;52.092;11.556;2023-02-28T10:14:40;1.83;;;1.73;;
5418;SDS011;2732;52.092;11.556;2023-02-28T10:25:18;1.80;;;1.23;;
5418;SDS011;2732;52.092;11.556;2023-02-28T10:30:24;1.43;;;1.33;;
5418;SDS011;2732;52.092;11.556;2023-02-28T10:35:25;2.40;;;1.93;;
5418;SDS011;2732;52.092;11.556;2023-02-28T10:40:29;1.67;;;1.57;;
5418;SDS011;2732;52.092;11.556;2023-02-28T10:45:38;2.20;;;1.10;;
5418;SDS011;2732;52.092;11.556;2023-02-28T10:51:01;1.63;;;1.43;;
5418;SDS011;2732;52.092;11.556;2023-02-28T11:01:14;2.30;;;1.50;;
5418;SDS011;2732;52.092;11.556;2023-02-28T11:11:25;1.60;;;1.50;;
5418;SDS011;2732;52.092;11.556;2023-02-28T11:16:32;3.70;;;1.60;;
5418;SDS011;2732;52.092;11.556;2023-02-28T11:21:36;1.73;;;1.63;;
5418;SDS011;2732;52.092;11.556;2023-02-28T11:26:41;1.50;;;1.40;;
5418;SDS011;2732;52.092;11.556;2023-02-28T11:37:28;2.23;;;1.90;;
5418;SDS011;2732;52.092;11.556;2023-02-28T11:47:47;6.33;;;1.60;;
5418;SDS011;2732;52.092;11.556;2023-02-28T12:15:14;2.00;;;1.80;;
5418;SDS011;2732;52.092;11.556;2023-02-28T12:26:58;1.23;;;1.13;;
5418;SDS011;2732;52.092;11.556;2023-02-28T12:37:29;2.93;;;1.67;;
5418;SDS011;2732;52.092;11.556;2023-02-28T12:42:42;3.70;;;1.80;;
5418;SDS011;2732;52.092;11.556;2023-02-28T12:48:04;4.50;;;2.00;;
5418;SDS011;2732;52.092;11.556;2023-02-28T12:53:15;3.20;;;1.77;;
5418;SDS011;2732;52.092;11.556;2023-02-28T13:03:37;1.90;;;1.80;;
5418;SDS011;2732;52.092;11.556;2023-02-28T13:19:31;2.23;;;1.60;;
5418;SDS011;2732;52.092;11.556;2023-02-28T13:24:43;1.67;;;1.57;;
5418;SDS011;2732;52.092;11.556;2023-02-28T13:29:50;2.03;;;1.50;;
5418;SDS011;2732;52.092;11.556;2023-02-28T13:55:27;2.60;;;1.87;;
5418;SDS011;2732;52.092;11.556;2023-02-28T14:11:40;1.83;;;1.73;;
5418;SDS011;2732;52.092;11.556;2023-02-28T14:16:46;2.97;;;1.60;;
5418;SDS011;2732;52.092;11.556;2023-02-28T14:21:56;2.13;;;1.30;;
5418;SDS011;2732;52.092;11.556;2023-02-28T14:27:55;2.03;;;1.83;;
5418;SDS011;2732;52.092;11.556;2023-02-28T14:38:44;3.20;;;2.00;;
5418;SDS011;2732;52.092;11.556;2023-02-28T14:43:58;2.20;;;2.00;;
5418;SDS011;2732;52.092;11.556;2023-02-28T14:49:01;2.23;;;2.00;;
5418;SDS011;2732;52.092;11.556;2023-02-28T14:54:04;2.53;;;2.10;;
5418;SDS011;2732;52.092;11.556;2023-02-28T14:59:06;3.07;;;2.27;;
5418;SDS011;2732;52.092;11.556;2023-02-28T15:04:40;5.03;;;1.90;;
5418;SDS011;2732;52.092;11.556;2023-02-28T15:09:41;1.90;;;1.70;;
5418;SDS011;2732;52.092;11.556;2023-02-28T15:14:42;2.20;;;2.10;;
5418;SDS011;2732;52.092;11.556;2023-02-28T15:19:45;2.43;;;2.23;;
5418;SDS011;2732;52.092;11.556;2023-02-28T15:24:51;5.53;;;1.97;;
5418;SDS011;2732;52.092;11.556;2023-02-28T15:29:57;2.17;;;2.00;;
5418;SDS011;2732;52.092;11.556;2023-02-28T15:40:38;2.60;;;2.37;;
5418;SDS011;2732;52.092;11.556;2023-02-28T15:45:57;3.10;;;2.27;;
5418;SDS011;2732;52.092;11.556;2023-02-28T15:51:22;3.00;;;2.70;;
5418;SDS011;2732;52.092;11.556;2023-02-28T15:56:44;3.20;;;2.60;;
5418;SDS011;2732;52.092;11.556;2023-02-28T16:02:02;3.53;;;2.50;;
5418;SDS011;2732;52.092;11.556;2023-02-28T16:07:20;3.10;;;2.80;;
5418;SDS011;2732;52.092;11.556;2023-02-28T16:12:24;2.40;;;1.90;;
5418;SDS011;2732;52.092;11.556;2023-02-28T16:17:29;3.50;;;2.70;;
5418;SDS011;2732;52.092;11.556;2023-02-28T16:22:33;4.80;;;2.70;;
5418;SDS011;2732;52.092;11.556;2023-02-28T16:27:35;2.13;;;1.93;;
5418;SDS011;2732;52.092;11.556;2023-02-28T16:32:37;3.03;;;2.60;;
5418;SDS011;2732;52.092;11.556;2023-02-28T16:37:37;3.07;;;2.43;;
5418;SDS011;2732;52.092;11.556;2023-02-28T16:42:38;2.60;;;2.40;;
5418;SDS011;2732;52.092;11.556;2023-02-28T16:47:40;2.83;;;2.63;;
5418;SDS011;2732;52.092;11.556;2023-02-28T16:52:43;4.40;;;3.67;;
5418;SDS011;2732;52.092;11.556;2023-02-28T16:57:44;8.60;;;4.70;;
5418;SDS011;2732;52.092;11.556;2023-02-28T17:02:51;6.30;;;3.53;;
5418;SDS011;2732;52.092;11.556;2023-02-28T17:07:52;4.60;;;3.93;;
5418;SDS011;2732;52.092;11.556;2023-02-28T17:12:53;4.83;;;3.47;;
5418;SDS011;2732;52.092;11.556;2023-02-28T17:17:53;8.03;;;4.83;;
5418;SDS011;2732;52.092;11.556;2023-02-28T17:22:54;9.40;;;5.57;;
5418;SDS011;2732;52.092;11.556;2023-02-28T17:27:55;10.83;;;4.90;;
5418;SDS011;2732;52.092;11.556;2023-02-28T17:32:56;7.20;;;4.67;;
5418;SDS011;2732;52.092;11.556;2023-02-28T17:37:57;7.83;;;4.90;;
5418;SDS011;2732;52.092;11.556;2023-02-28T17:42:57;11.03;;;5.17;;
5418;SDS011;2732;52.092;11.556;2023-02-28T17:47:58;7.87;;;4.77;;
5418;SDS011;2732;52.092;11.556;2023-02-28T17:52:59;5.57;;;4.00;;
5418;SDS011;2732;52.092;11.556;2023-02-28T17:58:00;6.80;;;4.53;;
5418;SDS011;2732;52.092;11.556;2023-02-28T18:03:03;13.10;;;4.40;;
5418;SDS011;2732;52.092;11.556;2023-02-28T18:08:04;5.47;;;4.17;;
5418;SDS011;2732;52.092;11.556;2023-02-28T18:13:05;6.60;;;4.17;;
5418;SDS011;2732;52.092;11.556;2023-02-28T18:18:05;6.70;;;3.80;;
5418;SDS011;2732;52.092;11.556;2023-02-28T18:23:06;4.37;;;3.53;;
5418;SDS011;2732;52.092;11.556;2023-02-28T18:28:07;3.70;;;3.40;;
5418;SDS011;2732;52.092;11.556;2023-02-28T18:33:07;7.73;;;4.13;;
5418;SDS011;2732;52.092;11.556;2023-02-28T18:38:10;7.47;;;4.77;;
5418;SDS011;2732;52.092;11.556;2023-02-28T18:43:18;6.00;;;4.67;;
5418;SDS011;2732;52.092;11.556;2023-02-28T18:48:19;6.77;;;4.90;;
5418;SDS011;2732;52.092;11.556;2023-02-28T18:53:22;5.53;;;4.30;;
5418;SDS011;2732;52.092;11.556;2023-02-28T18:58:23;6.97;;;5.10;;
5418;SDS011;2732;52.092;11.556;2023-02-28T19:03:24;4.80;;;4.40;;
5418;SDS011;2732;52.092;11.556;2023-02-28T19:08:25;12.63;;;4.80;;
5418;SDS011;2732;52.092;11.556;2023-02-28T19:13:26;9.40;;;4.90;;
5418;SDS011;2732;52.092;11.556;2023-02-28T19:18:26;5.70;;;4.43;;
5418;SDS011;2732;52.092;11.556;2023-02-28T19:23:27;6.47;;;4.40;;
5418;SDS011;2732;52.092;11.556;2023-02-28T19:28:30;7.47;;;5.33;;
5418;SDS011;2732;52.092;11.556;2023-02-28T19:33:31;10.23;;;5.07;;
5418;SDS011;2732;52.092;11.556;2023-02-28T19:38:31;7.90;;;4.60;;
5418;SDS011;2732;52.092;11.556;2023-02-28T19:43:32;9.37;;;4.80;;
5418;SDS011;2732;52.092;11.556;2023-02-28T19:48:33;6.37;;;4.70;;
5418;SDS011;2732;52.092;11.556;2023-02-28T19:53:34;8.93;;;4.50;;
5418;SDS011;2732;52.092;11.556;2023-02-28T19:58:37;6.33;;;5.20;;
5418;SDS011;2732;52.092;11.556;2023-02-28T20:03:39;4.30;;;4.00;;
5418;SDS011;2732;52.092;11.556;2023-02-28T20:08:42;9.00;;;5.13;;
5418;SDS011;2732;52.092;11.556;2023-02-28T20:13:43;5.30;;;3.60;;
5418;SDS011;2732;52.092;11.556;2023-02-28T20:18:48;5.10;;;4.60;;
5418;SDS011;2732;52.092;11.556;2023-02-28T20:23:52;6.07;;;3.73;;
5418;SDS011;2732;52.092;11.556;2023-02-28T20:28:54;8.30;;;5.07;;
5418;SDS011;2732;52.092;11.556;2023-02-28T20:33:54;5.30;;;3.70;;
5418;SDS011;2732;52.092;11.556;2023-02-28T20:38:55;4.73;;;3.70;;
5418;SDS011;2732;52.092;11.556;2023-02-28T20:43:57;7.03;;;4.20;;
5418;SDS011;2732;52.092;11.556;2023-02-28T20:48:58;7.70;;;4.90;;
5418;SDS011;2732;52.092;11.556;2023-02-28T20:53:59;11.10;;;5.20;;
5418;SDS011;2732;52.092;11.556;2023-02-28T20:59:02;8.73;;;5.30;;
5418;SDS011;2732;52.092;11.556;2023-02-28T21:04:05;9.37;;;5.40;;
5418;SDS011;2732;52.092;11.556;2023-02-28T21:09:07;9.13;;;5.13;;
5418;SDS011;2732;52.092;11.556;2023-02-28T21:14:13;8.00;;;5.47;;
5418;SDS011;2732;52.092;11.556;2023-02-28T21:19:16;12.93;;;5.63;;
5418;SDS011;2732;52.092;11.556;2023-02-28T21:24:18;8.23;;;5.07;;
5418;SDS011;2732;52.092;11.556;2023-02-28T21:29:19;7.03;;;4.90;;
5418;SDS011;2732;52.092;11.556;2023-02-28T21:34:20;9.50;;;5.80;;
5418;SDS011;2732;52.092;11.556;2023-02-28T21:39:22;7.20;;;4.60;;
5418;SDS011;2732;52.092;11.556;2023-02-28T21:44:25;6.10;;;5.20;;
5418;SDS011;2732;52.092;11.556;2023-02-28T21:49:27;9.30;;;6.00;;
5418;SDS011;2732;52.092;11.556;2023-02-28T21:54:28;11.90;;;6.20;;
5418;SDS011;2732;52.092;11.556;2023-02-28T21:59:28;10.73;;;5.67;;
5418;SDS011;2732;52.092;11.556;2023-02-28T22:04:29;14.87;;;6.20;;
5418;SDS011;2732;52.092;11.556;2023-02-28T22:09:30;9.37;;;6.33;;
5418;SDS011;2732;52.092;11.556;2023-02-28T22:14:31;11.90;;;5.80;;
5418;SDS011;2732;52.092;11.556;2023-02-28T22:19:31;6.93;;;5.53;;
5418;SDS011;2732;52.092;11.556;2023-02-28T22:24:32;9.93;;;5.97;;
5418;SDS011;2732;52.092;11.556;2023-02-28T22:29:33;7.13;;;5.30;;
5418;SDS011;2732;52.092;11.556;2023-02-28T22:34:33;5.20;;;4.70;;
5418;SDS011;2732;52.092;11.556;2023-02-28T22:39:34;5.87;;;4.10;;
5418;SDS011;2732;52.092;11.556;2023-02-28T22:44:35;8.57;;;5.33;;
5418;SDS011;2732;52.092;11.556;2023-02-28T22:49:35;10.00;;;4.77;;
5418;SDS011;2732;52.092;11.556;2023-02-28T22:54:36;6.23;;;4.50;;
5418;SDS011;2732;52.092;11.556;2023-02-28T22:59:36;7.53;;;4.70;;
5418;SDS011;2732;52.092;11.556;2023-02-28T23:04:37;7.87;;;5.00;;
5418;SDS011;2732;52.092;11.556;2023-02-28T23:09:37;9.30;;;4.83;;
5418;SDS011;2732;52.092;11.556;2023-02-28T23:14:38;5.50;;;4.13;;
5418;SDS011;2732;52.092;11.556;2023-02-28T23:19:39;11.37;;;4.93;;
5418;SDS011;2732;52.092;11.556;2023-02-28T23:24:39;5.40;;;4.33;;
5418;SDS011;2732;52.092;11.556;2023-02-28T23:29:40;6.97;;;4.47;;
5418;SDS011;2732;52.092;11.556;2023-02-28T23:34:42;6.93;;;4.70;;
5418;SDS011;2732;52.092;11.556;2023-02-28T23:39:43;5.87;;;4.33;;
5418;SDS011;2732;52.092;11.556;2023-02-28T23:44:44;9.80;;;5.00;;
5418;SDS011;2732;52.092;11.556;2023-02-28T23:49:45;5.20;;;4.20;;
5418;SDS011;2732;52.092;11.556;2023-02-28T23:54:47;6.30;;;4.23;;
5418;SDS011;2732;52.092;11.556;2023-02-28T23:59:47;8.53;;;4.80;;
